sensor_id;sensor_type;location;lat;lon;timestamp;pressure;altitude;pressure_sealevel;temperature;humidity
51249;BME280;39642;47.556;18.728;2023-06-04T00:01:58;99881.53;;;22.13;37.55
51249;BME280;39642;47.556;18.728;2023-06-04T00:04:27;99885.13;;;22.12;37.44
51249;BME280;39642;47.556;18.728;2023-06-04T00:06:54;99879.84;;;22.12;37.45
51249;BME280;39642;47.556;18.728;2023-06-04T00:09:20;99885.00;;;22.13;37.52
51249;BME280;39642;47.556;18.728;2023-06-04T00:11:46;99881.63;;;22.11;37.48
51249;BME280;39642;47.556;18.728;2023-06-04T00:14:13;99886.06;;;22.11;37.47
51249;BME280;39642;47.556;18.728;2023-06-04T00:16:39;99879.91;;;22.10;37.40
51249;BME280;39642;47.556;18.728;2023-06-04T00:19:06;99872.81;;;22.11;37.50
51249;BME280;39642;47.556;18.728;2023-06-04T00:21:32;99874.62;;;22.10;37.43
51249;BME280;39642;47.556;18.728;2023-06-04T00:23:59;99864.84;;;22.11;37.40
51249;BME280;39642;47.556;18.728;2023-06-04T00:26:25;99864.75;;;22.12;37.44
51249;BME280;39642;47.556;18.728;2023-06-04T00:28:51;99865.72;;;22.11;37.45
51249;BME280;39642;47.556;18.728;2023-06-04T00:31:17;99862.19;;;22.11;37.45
51249;BME280;39642;47.556;18.728;2023-06-04T00:33:43;99857.84;;;22.10;37.46
51249;BME280;39642;47.556;18.728;2023-06-04T00:36:09;99853.50;;;22.09;37.47
51249;BME280;39642;47.556;18.728;2023-06-04T00:38:35;99860.59;;;22.08;37.50
51249;BME280;39642;47.556;18.728;2023-06-04T00:41:01;99863.16;;;22.10;37.51
51249;BME280;39642;47.556;18.728;2023-06-04T00:43:26;99859.66;;;22.09;37.47
51249;BME280;39642;47.556;18.728;2023-06-04T00:45:53;99859.75;;;22.08;37.56
51249;BME280;39642;47.556;18.728;2023-06-04T00:48:20;99861.56;;;22.07;37.33
51249;BME280;39642;47.556;18.728;2023-06-04T00:50:47;99861.44;;;22.09;37.39
51249;BME280;39642;47.556;18.728;2023-06-04T00:53:13;99871.13;;;22.10;37.38
51249;BME280;39642;47.556;18.728;2023-06-04T00:55:39;99865.06;;;22.08;37.43
51249;BME280;39642;47.556;18.728;2023-06-04T00:58:04;99861.44;;;22.09;37.25
51249;BME280;39642;47.556;18.728;2023-06-04T01:00:31;99854.44;;;22.08;37.28
51249;BME280;39642;47.556;18.728;2023-06-04T01:02:58;99859.75;;;22.08;37.31
51249;BME280;39642;47.556;18.728;2023-06-04T01:05:45;99858.91;;;22.07;37.29
51249;BME280;39642;47.556;18.728;2023-06-04T01:08:13;99861.56;;;22.07;37.33
51249;BME280;39642;47.556;18.728;2023-06-04T01:10:53;99858.06;;;22.07;37.32
51249;BME280;39642;47.556;18.728;2023-06-04T01:13:19;99856.34;;;22.06;37.26
51249;BME280;39642;47.556;18.728;2023-06-04T01:15:45;99859.84;;;22.06;37.40
51249;BME280;39642;47.556;18.728;2023-06-04T01:18:15;99859.00;;;22.06;37.34
51249;BME280;39642;47.556;18.728;2023-06-04T01:21:01;99863.47;;;22.05;37.45
51249;BME280;39642;47.556;18.728;2023-06-04T01:26:04;99852.00;;;22.04;37.45
51249;BME280;39642;47.556;18.728;2023-06-04T01:28:32;99864.37;;;22.04;37.56
51249;BME280;39642;47.556;18.728;2023-06-04T01:30:59;99864.37;;;22.04;37.60
51249;BME280;39642;47.556;18.728;2023-06-04T01:33:27;99868.00;;;22.03;37.55
51249;BME280;39642;47.556;18.728;2023-06-04T01:35:53;99868.84;;;22.03;37.57
51249;BME280;39642;47.556;18.728;2023-06-04T01:38:19;99856.44;;;22.04;37.40
51249;BME280;39642;47.556;18.728;2023-06-04T01:40:45;99857.31;;;22.04;37.50
51249;BME280;39642;47.556;18.728;2023-06-04T01:43:12;99862.69;;;22.03;37.39
51249;BME280;39642;47.556;18.728;2023-06-04T01:45:38;99861.84;;;22.02;37.39
51249;BME280;39642;47.556;18.728;2023-06-04T01:48:05;99867.16;;;22.02;37.31
51249;BME280;39642;47.556;18.728;2023-06-04T01:50:31;99861.84;;;22.02;37.33
51249;BME280;39642;47.556;18.728;2023-06-04T01:52:57;99868.00;;;22.03;37.36
51249;BME280;39642;47.556;18.728;2023-06-04T01:55:23;99863.63;;;22.02;37.28
51249;BME280;39642;47.556;18.728;2023-06-04T01:57:55;99868.00;;;22.03;37.22
51249;BME280;39642;47.556;18.728;2023-06-04T02:00:21;99871.59;;;22.02;37.25
51249;BME280;39642;47.556;18.728;2023-06-04T02:02:48;99865.44;;;22.01;37.19
51249;BME280;39642;47.556;18.728;2023-06-04T02:05:14;99876.03;;;22.01;37.26
51249;BME280;39642;47.556;18.728;2023-06-04T02:07:43;99872.56;;;22.01;37.29
51249;BME280;39642;47.556;18.728;2023-06-04T02:10:18;99876.88;;;22.02;37.29
51249;BME280;39642;47.556;18.728;2023-06-04T02:12:59;99875.12;;;22.02;37.28
51249;BME280;39642;47.556;18.728;2023-06-04T02:15:26;99878.69;;;22.01;37.21
51249;BME280;39642;47.556;18.728;2023-06-04T02:20:42;99880.41;;;22.02;37.18
51249;BME280;39642;47.556;18.728;2023-06-04T02:23:09;99870.87;;;22.00;37.21
51249;BME280;39642;47.556;18.728;2023-06-04T02:25:35;99873.59;;;21.98;37.24
51249;BME280;39642;47.556;18.728;2023-06-04T02:28:01;99864.81;;;21.98;37.31
51249;BME280;39642;47.556;18.728;2023-06-04T02:30:26;99869.97;;;21.99;37.30
51249;BME280;39642;47.556;18.728;2023-06-04T02:32:52;99867.34;;;21.99;37.45
51249;BME280;39642;47.556;18.728;2023-06-04T02:35:21;99870.94;;;21.98;37.48
51249;BME280;39642;47.556;18.728;2023-06-04T02:37:49;99865.72;;;21.97;37.36
51249;BME280;39642;47.556;18.728;2023-06-04T02:40:15;99869.22;;;21.97;37.36
51249;BME280;39642;47.556;18.728;2023-06-04T02:42:41;99866.56;;;21.97;37.38
51249;BME280;39642;47.556;18.728;2023-06-04T02:45:07;99868.38;;;21.97;37.51
51249;BME280;39642;47.556;18.728;2023-06-04T02:47:33;99873.69;;;21.97;37.48
51249;BME280;39642;47.556;18.728;2023-06-04T02:49:59;99874.53;;;21.97;37.48
51249;BME280;39642;47.556;18.728;2023-06-04T02:52:25;99869.22;;;21.97;37.41
51249;BME280;39642;47.556;18.728;2023-06-04T02:54:52;99868.50;;;21.95;37.51
51249;BME280;39642;47.556;18.728;2023-06-04T02:57:17;99866.69;;;21.96;37.40
51249;BME280;39642;47.556;18.728;2023-06-04T02:59:43;99872.00;;;21.96;37.47
51249;BME280;39642;47.556;18.728;2023-06-04T03:02:09;99858.84;;;21.94;37.50
51249;BME280;39642;47.556;18.728;2023-06-04T03:04:37;99866.78;;;21.94;37.39
51249;BME280;39642;47.556;18.728;2023-06-04T03:07:03;99864.22;;;21.93;37.54
51249;BME280;39642;47.556;18.728;2023-06-04T03:09:32;99864.22;;;21.93;37.55
51249;BME280;39642;47.556;18.728;2023-06-04T03:11:59;99861.56;;;21.93;37.39
51249;BME280;39642;47.556;18.728;2023-06-04T03:14:27;99864.22;;;21.93;37.37
51249;BME280;39642;47.556;18.728;2023-06-04T03:17:01;99871.31;;;21.92;37.41
51249;BME280;39642;47.556;18.728;2023-06-04T03:19:35;99866.03;;;21.92;37.32
51249;BME280;39642;47.556;18.728;2023-06-04T03:22:01;99869.66;;;21.91;37.49
51249;BME280;39642;47.556;18.728;2023-06-04T03:24:35;99868.69;;;21.92;37.40
51249;BME280;39642;47.556;18.728;2023-06-04T03:27:05;99873.06;;;21.93;37.44
51249;BME280;39642;47.556;18.728;2023-06-04T03:29:32;99874.94;;;21.91;37.32
51249;BME280;39642;47.556;18.728;2023-06-04T03:31:58;99872.28;;;21.91;37.35
51249;BME280;39642;47.556;18.728;2023-06-04T03:34:24;99877.59;;;21.91;37.32
51249;BME280;39642;47.556;18.728;2023-06-04T03:36:55;99877.59;;;21.91;37.31
51249;BME280;39642;47.556;18.728;2023-06-04T03:39:22;99880.25;;;21.91;37.37
51249;BME280;39642;47.556;18.728;2023-06-04T03:41:48;99888.19;;;21.91;37.38
51249;BME280;39642;47.556;18.728;2023-06-04T03:44:17;99883.81;;;21.90;37.46
51249;BME280;39642;47.556;18.728;2023-06-04T03:46:44;99879.37;;;21.91;37.42
51249;BME280;39642;47.556;18.728;2023-06-04T03:49:10;99888.28;;;21.90;37.41
51249;BME280;39642;47.556;18.728;2023-06-04T03:51:41;99889.13;;;21.90;37.41
51249;BME280;39642;47.556;18.728;2023-06-04T03:54:07;99895.28;;;21.91;37.47
51249;BME280;39642;47.556;18.728;2023-06-04T03:56:32;99905.88;;;21.91;37.47
51249;BME280;39642;47.556;18.728;2023-06-04T03:58:58;99905.03;;;21.90;37.50
51249;BME280;39642;47.556;18.728;2023-06-04T04:01:25;99902.37;;;21.90;37.40
51249;BME280;39642;47.556;18.728;2023-06-04T04:03:51;99904.19;;;21.90;37.36
51249;BME280;39642;47.556;18.728;2023-06-04T04:06:17;99905.03;;;21.90;37.43
51249;BME280;39642;47.556;18.728;2023-06-04T04:08:44;99913.00;;;21.90;37.45
51249;BME280;39642;47.556;18.728;2023-06-04T04:11:14;99913.94;;;21.89;37.43
51249;BME280;39642;47.556;18.728;2023-06-04T04:13:40;99913.94;;;21.89;37.47
51249;BME280;39642;47.556;18.728;2023-06-04T04:16:07;99912.22;;;21.88;37.56
51249;BME280;39642;47.556;18.728;2023-06-04T04:18:34;99911.38;;;21.88;37.49
51249;BME280;39642;47.556;18.728;2023-06-04T04:21:00;99914.78;;;21.90;37.48
51249;BME280;39642;47.556;18.728;2023-06-04T04:23:27;99913.09;;;21.89;37.47
51249;BME280;39642;47.556;18.728;2023-06-04T04:25:53;99912.16;;;21.90;37.40
51249;BME280;39642;47.556;18.728;2023-06-04T04:28:19;99912.16;;;21.90;37.36
51249;BME280;39642;47.556;18.728;2023-06-04T04:30:46;99915.63;;;21.90;37.37
51249;BME280;39642;47.556;18.728;2023-06-04T04:33:14;99922.66;;;21.91;37.37
51249;BME280;39642;47.556;18.728;2023-06-04T04:35:44;99917.44;;;21.90;37.24
51249;BME280;39642;47.556;18.728;2023-06-04T04:38:10;99924.56;;;21.89;37.32
51249;BME280;39642;47.556;18.728;2023-06-04T04:40:36;99920.19;;;21.88;37.36
51249;BME280;39642;47.556;18.728;2023-06-04T04:43:03;99926.34;;;21.89;37.41
51249;BME280;39642;47.556;18.728;2023-06-04T04:45:29;99923.72;;;21.89;37.46
51249;BME280;39642;47.556;18.728;2023-06-04T04:47:55;99922.00;;;21.88;37.39
51249;BME280;39642;47.556;18.728;2023-06-04T04:50:21;99923.78;;;21.87;37.44
51249;BME280;39642;47.556;18.728;2023-06-04T04:52:47;99922.84;;;21.88;37.53
51249;BME280;39642;47.556;18.728;2023-06-04T04:55:13;99917.53;;;21.88;37.56
51249;BME280;39642;47.556;18.728;2023-06-04T04:57:39;99925.59;;;21.87;37.66
51249;BME280;39642;47.556;18.728;2023-06-04T05:00:05;99923.78;;;21.87;37.66
51249;BME280;39642;47.556;18.728;2023-06-04T05:02:34;99931.75;;;21.87;37.66
51249;BME280;39642;47.556;18.728;2023-06-04T05:05:01;99928.25;;;21.87;37.72
51249;BME280;39642;47.556;18.728;2023-06-04T05:07:27;99936.09;;;21.88;37.78
51249;BME280;39642;47.556;18.728;2023-06-04T05:09:53;99933.44;;;21.88;37.69
51249;BME280;39642;47.556;18.728;2023-06-04T05:12:19;99927.38;;;21.86;37.76
51249;BME280;39642;47.556;18.728;2023-06-04T05:14:45;99937.12;;;21.86;37.80
51249;BME280;39642;47.556;18.728;2023-06-04T05:17:11;99932.69;;;21.86;37.74
51249;BME280;39642;47.556;18.728;2023-06-04T05:19:39;99939.69;;;21.87;37.73
51249;BME280;39642;47.556;18.728;2023-06-04T05:22:04;99937.06;;;21.87;37.71
51249;BME280;39642;47.556;18.728;2023-06-04T05:24:31;99937.06;;;21.87;37.73
51249;BME280;39642;47.556;18.728;2023-06-04T05:26:58;99938.75;;;21.88;37.68
51249;BME280;39642;47.556;18.728;2023-06-04T05:29:24;99938.75;;;21.88;37.61
51249;BME280;39642;47.556;18.728;2023-06-04T05:31:50;99942.34;;;21.87;37.54
51249;BME280;39642;47.556;18.728;2023-06-04T05:34:16;99938.84;;;21.87;37.55
51249;BME280;39642;47.556;18.728;2023-06-04T05:36:42;99943.19;;;21.88;37.51
51249;BME280;39642;47.556;18.728;2023-06-04T05:39:11;99945.00;;;21.87;37.52
51249;BME280;39642;47.556;18.728;2023-06-04T05:41:37;99950.31;;;21.87;37.48
51249;BME280;39642;47.556;18.728;2023-06-04T05:44:03;99940.53;;;21.88;37.48
51249;BME280;39642;47.556;18.728;2023-06-04T05:46:29;99938.75;;;21.88;37.48
51249;BME280;39642;47.556;18.728;2023-06-04T05:48:55;99939.69;;;21.87;37.44
51249;BME280;39642;47.556;18.728;2023-06-04T05:51:21;99945.84;;;21.88;37.44
51249;BME280;39642;47.556;18.728;2023-06-04T05:53:47;99949.34;;;21.88;37.47
51249;BME280;39642;47.556;18.728;2023-06-04T05:56:13;99948.50;;;21.88;37.50
51249;BME280;39642;47.556;18.728;2023-06-04T05:58:39;99949.34;;;21.88;37.48
51249;BME280;39642;47.556;18.728;2023-06-04T06:01:05;99954.66;;;21.88;37.42
51249;BME280;39642;47.556;18.728;2023-06-04T06:03:32;99954.66;;;21.88;37.40
51249;BME280;39642;47.556;18.728;2023-06-04T06:05:57;99959.94;;;21.88;37.41
51249;BME280;39642;47.556;18.728;2023-06-04T06:08:25;99959.94;;;21.88;37.43
51249;BME280;39642;47.556;18.728;2023-06-04T06:10:51;99962.59;;;21.88;37.34
51249;BME280;39642;47.556;18.728;2023-06-04T06:13:17;99970.56;;;21.88;37.47
51249;BME280;39642;47.556;18.728;2023-06-04T06:15:43;99967.91;;;21.88;37.42
51249;BME280;39642;47.556;18.728;2023-06-04T06:18:09;99972.28;;;21.89;37.39
51249;BME280;39642;47.556;18.728;2023-06-04T06:20:35;99973.97;;;21.90;37.38
51249;BME280;39642;47.556;18.728;2023-06-04T06:23:07;99966.97;;;21.89;37.43
51249;BME280;39642;47.556;18.728;2023-06-04T06:25:33;99971.31;;;21.90;37.45
51249;BME280;39642;47.556;18.728;2023-06-04T06:27:59;99968.66;;;21.90;37.42
51249;BME280;39642;47.556;18.728;2023-06-04T06:30:25;99969.50;;;21.91;37.54
51249;BME280;39642;47.556;18.728;2023-06-04T06:32:51;99968.66;;;21.90;37.56
51249;BME280;39642;47.556;18.728;2023-06-04T06:35:17;99980.03;;;21.92;37.60
51249;BME280;39642;47.556;18.728;2023-06-04T06:37:43;99980.03;;;21.92;37.61
51249;BME280;39642;47.556;18.728;2023-06-04T06:40:10;99986.09;;;21.94;37.60
51249;BME280;39642;47.556;18.728;2023-06-04T06:42:36;99984.41;;;21.93;37.55
51249;BME280;39642;47.556;18.728;2023-06-04T06:45:02;99990.53;;;21.94;37.60
51249;BME280;39642;47.556;18.728;2023-06-04T06:47:28;99988.66;;;21.96;37.60
51249;BME280;39642;47.556;18.728;2023-06-04T06:49:54;99993.97;;;21.96;37.58
51249;BME280;39642;47.556;18.728;2023-06-04T06:52:20;99998.41;;;21.95;37.62
51249;BME280;39642;47.556;18.728;2023-06-04T06:54:46;99998.41;;;21.95;37.57
51249;BME280;39642;47.556;18.728;2023-06-04T06:57:13;99999.34;;;21.94;37.52
51249;BME280;39642;47.556;18.728;2023-06-04T06:59:39;100008.16;;;21.95;37.54
51249;BME280;39642;47.556;18.728;2023-06-04T07:02:05;100009.87;;;21.96;37.52
51249;BME280;39642;47.556;18.728;2023-06-04T07:04:31;100005.41;;;21.96;37.51
51249;BME280;39642;47.556;18.728;2023-06-04T07:06:57;100017.72;;;21.97;37.42
51249;BME280;39642;47.556;18.728;2023-06-04T07:09:23;100014.13;;;21.98;37.42
51249;BME280;39642;47.556;18.728;2023-06-04T07:11:49;100016.69;;;22.00;37.54
51249;BME280;39642;47.556;18.728;2023-06-04T07:14:15;100011.28;;;22.01;37.51
51249;BME280;39642;47.556;18.728;2023-06-04T07:16:41;100013.09;;;22.01;37.51
51249;BME280;39642;47.556;18.728;2023-06-04T07:19:07;100017.53;;;22.00;37.49
51249;BME280;39642;47.556;18.728;2023-06-04T07:21:32;100013.09;;;22.01;37.47
51249;BME280;39642;47.556;18.728;2023-06-04T07:23:58;100019.16;;;22.03;37.45
51249;BME280;39642;47.556;18.728;2023-06-04T07:26:24;100013.00;;;22.02;37.40
51249;BME280;39642;47.556;18.728;2023-06-04T07:28:52;100014.69;;;22.03;37.35
51249;BME280;39642;47.556;18.728;2023-06-04T07:31:18;100007.69;;;22.02;37.33
51249;BME280;39642;47.556;18.728;2023-06-04T07:33:43;100005.88;;;22.03;37.28
51249;BME280;39642;47.556;18.728;2023-06-04T07:36:13;100007.56;;;22.04;37.34
51249;BME280;39642;47.556;18.728;2023-06-04T07:38:40;100002.38;;;22.02;37.34
51249;BME280;39642;47.556;18.728;2023-06-04T07:41:06;100006.72;;;22.03;37.33
51249;BME280;39642;47.556;18.728;2023-06-04T07:43:33;100001.50;;;22.02;37.34
51249;BME280;39642;47.556;18.728;2023-06-04T07:46:01;100006.81;;;22.02;37.28
51249;BME280;39642;47.556;18.728;2023-06-04T07:48:27;100011.28;;;22.01;37.31
51249;BME280;39642;47.556;18.728;2023-06-04T07:51:00;100016.56;;;22.01;37.29
51249;BME280;39642;47.556;18.728;2023-06-04T07:53:26;100018.28;;;22.02;37.22
51249;BME280;39642;47.556;18.728;2023-06-04T07:55:53;100024.53;;;22.01;37.24
51249;BME280;39642;47.556;18.728;2023-06-04T07:58:19;100013.94;;;22.01;37.28
51249;BME280;39642;47.556;18.728;2023-06-04T08:00:45;100025.38;;;22.02;37.26
51249;BME280;39642;47.556;18.728;2023-06-04T08:03:11;100027.19;;;22.01;37.32
51249;BME280;39642;47.556;18.728;2023-06-04T08:05:37;100025.38;;;22.02;37.27
51249;BME280;39642;47.556;18.728;2023-06-04T08:08:04;100020.94;;;22.02;37.27
51249;BME280;39642;47.556;18.728;2023-06-04T08:10:30;100028.03;;;22.02;37.20
51249;BME280;39642;47.556;18.728;2023-06-04T08:12:56;100020.94;;;22.02;37.29
51249;BME280;39642;47.556;18.728;2023-06-04T08:15:22;100020.94;;;22.02;37.32
51249;BME280;39642;47.556;18.728;2023-06-04T08:17:48;100019.22;;;22.01;37.28
51249;BME280;39642;47.556;18.728;2023-06-04T08:20:14;100023.69;;;22.01;37.36
51249;BME280;39642;47.556;18.728;2023-06-04T08:22:40;100029.94;;;22.00;37.30
51249;BME280;39642;47.556;18.728;2023-06-04T08:25:06;100015.72;;;22.01;37.25
51249;BME280;39642;47.556;18.728;2023-06-04T08:27:32;100016.69;;;22.00;37.22
51249;BME280;39642;47.556;18.728;2023-06-04T08:29:58;100025.50;;;22.00;37.22
51249;BME280;39642;47.556;18.728;2023-06-04T08:32:24;100025.50;;;22.00;37.20
51249;BME280;39642;47.556;18.728;2023-06-04T08:34:50;100032.47;;;22.01;37.25
51249;BME280;39642;47.556;18.728;2023-06-04T08:37:19;100034.22;;;22.02;37.18
51249;BME280;39642;47.556;18.728;2023-06-04T08:39:45;100037.72;;;22.03;37.24
51249;BME280;39642;47.556;18.728;2023-06-04T08:42:18;100036.84;;;22.02;37.25
51249;BME280;39642;47.556;18.728;2023-06-04T08:44:50;100036.75;;;22.04;37.29
51249;BME280;39642;47.556;18.728;2023-06-04T08:47:19;100022.56;;;22.05;37.24
51249;BME280;39642;47.556;18.728;2023-06-04T08:49:50;100040.28;;;22.04;37.27
51249;BME280;39642;47.556;18.728;2023-06-04T08:52:16;100037.50;;;22.06;37.27
51249;BME280;39642;47.556;18.728;2023-06-04T08:54:42;100041.13;;;22.05;37.31
51249;BME280;39642;47.556;18.728;2023-06-04T08:57:08;100034.00;;;22.06;37.26
51249;BME280;39642;47.556;18.728;2023-06-04T08:59:35;100041.97;;;22.06;37.31
51249;BME280;39642;47.556;18.728;2023-06-04T09:02:02;100045.47;;;22.06;37.32
51249;BME280;39642;47.556;18.728;2023-06-04T09:04:29;100036.66;;;22.06;37.37
51249;BME280;39642;47.556;18.728;2023-06-04T09:07:01;100040.16;;;22.06;37.37
51249;BME280;39642;47.556;18.728;2023-06-04T09:09:28;100042.81;;;22.06;37.37
51249;BME280;39642;47.556;18.728;2023-06-04T09:11:56;100037.50;;;22.06;37.34
51249;BME280;39642;47.556;18.728;2023-06-04T09:14:23;100041.88;;;22.07;37.43
51249;BME280;39642;47.556;18.728;2023-06-04T09:16:50;100030.31;;;22.08;37.37
51249;BME280;39642;47.556;18.728;2023-06-04T09:19:18;100035.62;;;22.08;37.38
51249;BME280;39642;47.556;18.728;2023-06-04T09:21:52;100040.00;;;22.09;37.36
51249;BME280;39642;47.556;18.728;2023-06-04T09:24:19;100030.22;;;22.10;37.35
51249;BME280;39642;47.556;18.728;2023-06-04T09:26:46;100042.53;;;22.11;37.38
51249;BME280;39642;47.556;18.728;2023-06-04T09:29:13;100036.28;;;22.12;37.37
51249;BME280;39642;47.556;18.728;2023-06-04T09:31:40;100031.84;;;22.12;37.39
51249;BME280;39642;47.556;18.728;2023-06-04T09:34:06;100029.09;;;22.14;37.37
51249;BME280;39642;47.556;18.728;2023-06-04T09:36:35;100026.44;;;22.14;37.38
51249;BME280;39642;47.556;18.728;2023-06-04T09:39:02;100024.63;;;22.14;37.40
51249;BME280;39642;47.556;18.728;2023-06-04T09:41:29;100020.19;;;22.15;37.49
51249;BME280;39642;47.556;18.728;2023-06-04T09:44:02;100026.34;;;22.15;37.51
51249;BME280;39642;47.556;18.728;2023-06-04T09:46:31;100029.84;;;22.16;37.50
51249;BME280;39642;47.556;18.728;2023-06-04T09:49:02;100028.06;;;22.16;37.51
51249;BME280;39642;47.556;18.728;2023-06-04T09:51:29;100033.34;;;22.16;37.55
51249;BME280;39642;47.556;18.728;2023-06-04T09:54:00;100037.81;;;22.16;37.55
51249;BME280;39642;47.556;18.728;2023-06-04T09:56:27;100034.19;;;22.17;37.57
51249;BME280;39642;47.556;18.728;2023-06-04T09:58:56;100034.13;;;22.18;37.56
51249;BME280;39642;47.556;18.728;2023-06-04T10:01:23;100037.63;;;22.19;37.60
51249;BME280;39642;47.556;18.728;2023-06-04T10:03:52;100033.16;;;22.19;37.61
51249;BME280;39642;47.556;18.728;2023-06-04T10:06:20;100037.63;;;22.19;37.68
51249;BME280;39642;47.556;18.728;2023-06-04T10:08:49;100041.03;;;22.21;37.69
51249;BME280;39642;47.556;18.728;2023-06-04T10:11:26;100042.84;;;22.20;37.68
51249;BME280;39642;47.556;18.728;2023-06-04T10:13:53;100043.69;;;22.21;37.69
51249;BME280;39642;47.556;18.728;2023-06-04T10:16:23;100045.41;;;22.22;37.57
51249;BME280;39642;47.556;18.728;2023-06-04T10:18:52;100045.50;;;22.20;37.74
51249;BME280;39642;47.556;18.728;2023-06-04T10:21:21;100046.34;;;22.21;37.79
51249;BME280;39642;47.556;18.728;2023-06-04T10:23:47;100041.81;;;22.23;37.71
51249;BME280;39642;47.556;18.728;2023-06-04T10:26:15;100039.94;;;22.25;37.77
51249;BME280;39642;47.556;18.728;2023-06-04T10:28:42;100036.31;;;22.26;37.81
51249;BME280;39642;47.556;18.728;2023-06-04T10:31:11;100037.28;;;22.25;37.81
51249;BME280;39642;47.556;18.728;2023-06-04T10:33:38;100042.59;;;22.25;37.74
51249;BME280;39642;47.556;18.728;2023-06-04T10:36:21;100047.88;;;22.25;37.70
51249;BME280;39642;47.556;18.728;2023-06-04T10:38:52;100049.50;;;22.28;37.74
51249;BME280;39642;47.556;18.728;2023-06-04T10:41:19;100042.38;;;22.28;37.76
51249;BME280;39642;47.556;18.728;2023-06-04T10:43:48;100053.97;;;22.27;37.69
51249;BME280;39642;47.556;18.728;2023-06-04T10:46:19;100048.75;;;22.26;37.67
51249;BME280;39642;47.556;18.728;2023-06-04T10:48:52;100047.97;;;22.23;37.67
51249;BME280;39642;47.556;18.728;2023-06-04T10:51:31;100056.78;;;22.24;37.64
51249;BME280;39642;47.556;18.728;2023-06-04T10:53:58;100043.50;;;22.24;37.63
51249;BME280;39642;47.556;18.728;2023-06-04T10:56:31;100048.94;;;22.22;37.64
51249;BME280;39642;47.556;18.728;2023-06-04T10:59:00;100040.00;;;22.23;37.63
51249;BME280;39642;47.556;18.728;2023-06-04T11:01:29;100048.06;;;22.22;37.66
51249;BME280;39642;47.556;18.728;2023-06-04T11:03:57;100043.63;;;22.22;37.67
51249;BME280;39642;47.556;18.728;2023-06-04T11:06:24;100038.31;;;22.22;37.67
51249;BME280;39642;47.556;18.728;2023-06-04T11:09:03;100049.88;;;22.21;37.67
51249;BME280;39642;47.556;18.728;2023-06-04T11:11:31;100046.34;;;22.21;37.67
51249;BME280;39642;47.556;18.728;2023-06-04T11:14:10;100050.78;;;22.20;37.67
51249;BME280;39642;47.556;18.728;2023-06-04T11:16:38;100047.25;;;22.20;37.66
51249;BME280;39642;47.556;18.728;2023-06-04T11:19:04;100049.06;;;22.19;37.66
51249;BME280;39642;47.556;18.728;2023-06-04T11:21:30;100049.91;;;22.20;37.69
51249;BME280;39642;47.556;18.728;2023-06-04T11:24:00;100044.72;;;22.18;37.66
51249;BME280;39642;47.556;18.728;2023-06-04T11:26:36;100043.87;;;22.18;37.65
51249;BME280;39642;47.556;18.728;2023-06-04T11:29:06;100045.56;;;22.19;37.62
51249;BME280;39642;47.556;18.728;2023-06-04T11:31:45;100041.22;;;22.18;37.58
51249;BME280;39642;47.556;18.728;2023-06-04T11:34:25;100048.22;;;22.19;37.56
51249;BME280;39642;47.556;18.728;2023-06-04T11:36:51;100052.78;;;22.17;37.55
51249;BME280;39642;47.556;18.728;2023-06-04T11:39:21;100049.28;;;22.16;37.57
51249;BME280;39642;47.556;18.728;2023-06-04T11:41:48;100040.47;;;22.16;37.56
51249;BME280;39642;47.556;18.728;2023-06-04T11:44:18;100047.53;;;22.15;37.57
51249;BME280;39642;47.556;18.728;2023-06-04T11:46:44;100053.72;;;22.16;37.51
51249;BME280;39642;47.556;18.728;2023-06-04T11:49:18;100051.06;;;22.16;37.50
51249;BME280;39642;47.556;18.728;2023-06-04T11:51:51;100057.22;;;22.16;37.50
51249;BME280;39642;47.556;18.728;2023-06-04T11:54:21;100052.84;;;22.15;37.55
51249;BME280;39642;47.556;18.728;2023-06-04T11:56:51;100055.41;;;22.17;37.54
51249;BME280;39642;47.556;18.728;2023-06-04T11:59:17;100060.72;;;22.17;37.49
51249;BME280;39642;47.556;18.728;2023-06-04T12:01:45;100048.44;;;22.16;37.53
51249;BME280;39642;47.556;18.728;2023-06-04T12:04:18;100056.38;;;22.16;37.44
51249;BME280;39642;47.556;18.728;2023-06-04T12:06:54;100059.03;;;22.16;37.44
51249;BME280;39642;47.556;18.728;2023-06-04T12:09:29;100057.31;;;22.15;37.46
51249;BME280;39642;47.556;18.728;2023-06-04T12:12:02;100057.22;;;22.16;37.42
51249;BME280;39642;47.556;18.728;2023-06-04T12:14:29;100050.13;;;22.17;37.42
51249;BME280;39642;47.556;18.728;2023-06-04T12:17:00;100051.06;;;22.16;37.35
51249;BME280;39642;47.556;18.728;2023-06-04T12:19:27;100038.75;;;22.15;37.27
51249;BME280;39642;47.556;18.728;2023-06-04T12:22:00;100054.66;;;22.15;37.22
51249;BME280;39642;47.556;18.728;2023-06-04T12:24:31;100042.25;;;22.15;37.15
51249;BME280;39642;47.556;18.728;2023-06-04T12:27:05;100039.59;;;22.15;37.14
51249;BME280;39642;47.556;18.728;2023-06-04T12:29:32;100038.75;;;22.15;37.20
51249;BME280;39642;47.556;18.728;2023-06-04T12:32:06;100039.59;;;22.15;37.08
51249;BME280;39642;47.556;18.728;2023-06-04T12:34:39;100037.81;;;22.16;37.18
51249;BME280;39642;47.556;18.728;2023-06-04T12:37:06;100039.59;;;22.15;37.08
51249;BME280;39642;47.556;18.728;2023-06-04T12:39:33;100039.59;;;22.15;37.12
51249;BME280;39642;47.556;18.728;2023-06-04T12:42:00;100036.94;;;22.15;37.07
51249;BME280;39642;47.556;18.728;2023-06-04T12:44:26;100038.75;;;22.15;37.17
51249;BME280;39642;47.556;18.728;2023-06-04T12:46:52;100031.62;;;22.15;37.06
51249;BME280;39642;47.556;18.728;2023-06-04T12:49:17;100042.25;;;22.15;36.99
51249;BME280;39642;47.556;18.728;2023-06-04T12:51:43;100037.81;;;22.16;36.92
51249;BME280;39642;47.556;18.728;2023-06-04T12:54:09;100030.78;;;22.15;36.99